Time;durP1;ratioP1;P1;durP2;ratioP2;P2;SDS_P1;SDS_P2;PMS_P1;PMS_P2;Temp;Humidity;BMP_temperature;BMP_pressure;BME280_temperature;BME280_humidity;BME280_pressure;Samples;Min_cycle;Max_cycle;Signal;HPM_P1;HPM_P2
2021/10/11 00:01:53;;;;;;;10.93;3.10;;;11.80;99.90;;;;;;5092198;28;20039;-62
2021/10/11 00:04:18;;;;;;;11.55;3.63;;;11.70;99.90;;;;;;5092318;28;20036;-62
2021/10/11 00:06:44;;;;;;;11.50;3.35;;;11.70;99.90;;;;;;5091934;28;20123;-62
2021/10/11 00:09:09;;;;;;;9.40;2.17;;;11.70;99.90;;;;;;5091887;28;20539;-61
2021/10/11 00:11:35;;;;;;;10.30;2.00;;;11.70;99.90;;;;;;5091717;28;20036;-61
2021/10/11 00:14:01;;;;;;;14.18;2.88;;;11.60;99.90;;;;;;5092094;28;20043;-62
2021/10/11 00:16:26;;;;;;;9.77;1.95;;;11.70;99.90;;;;;;5092012;28;20040;-62
2021/10/11 00:18:52;;;;;;;9.32;2.28;;;11.70;99.90;;;;;;5092179;28;20127;-62
2021/10/11 00:21:18;;;;;;;11.52;2.15;;;11.70;99.90;;;;;;5092051;28;20396;-62
2021/10/11 00:23:44;;;;;;;13.45;2.65;;;11.80;99.90;;;;;;5091844;28;20046;-61
2021/10/11 00:26:10;;;;;;;10.52;2.45;;;11.80;99.90;;;;;;5091491;28;20052;-62
2021/10/11 00:28:36;;;;;;;11.43;3.17;;;11.90;99.90;;;;;;5091832;28;20397;-62
2021/10/11 00:31:02;;;;;;;12.77;2.13;;;11.90;99.90;;;;;;5091842;28;20040;-61
2021/10/11 00:33:28;;;;;;;12.70;2.25;;;11.90;99.90;;;;;;5091847;28;20040;-61
2021/10/11 00:35:53;;;;;;;10.85;2.33;;;11.90;99.90;;;;;;5095214;28;20044;-62
2021/10/11 00:38:19;;;;;;;15.27;2.22;;;11.90;99.90;;;;;;5095860;28;20036;-62
2021/10/11 00:40:44;;;;;;;6.25;1.98;;;11.90;99.90;;;;;;5095615;28;20039;-61
2021/10/11 00:43:10;;;;;;;10.77;2.40;;;11.90;99.90;;;;;;5095952;28;20394;-62
2021/10/11 00:45:36;;;;;;;16.00;3.90;;;11.90;99.90;;;;;;5095684;28;20462;-62
2021/10/11 00:48:02;;;;;;;12.90;2.55;;;11.90;99.90;;;;;;5095696;28;20582;-62
2021/10/11 00:50:28;;;;;;;11.20;2.50;;;11.80;99.90;;;;;;5095598;28;20490;-62
2021/10/11 00:52:54;;;;;;;7.03;2.05;;;11.80;99.90;;;;;;5095467;28;20080;-62
2021/10/11 00:55:21;;;;;;;10.88;2.30;;;11.80;99.90;;;;;;5095457;28;20058;-61
2021/10/11 00:57:46;;;;;;;7.88;2.13;;;11.70;99.90;;;;;;5095655;28;20048;-62
2021/10/11 01:00:13;;;;;;;10.07;2.38;;;11.70;99.90;;;;;;5095469;28;20050;-62
2021/10/11 01:02:40;;;;;;;10.40;2.65;;;11.70;99.90;;;;;;5095323;28;20132;-62
2021/10/11 01:05:06;;;;;;;8.30;1.70;;;11.70;99.90;;;;;;5095414;28;20126;-61
2021/10/11 01:07:32;;;;;;;7.28;2.25;;;11.70;99.90;;;;;;5095082;28;20509;-61
2021/10/11 01:09:58;;;;;;;7.80;2.03;;;11.70;99.90;;;;;;5095505;28;20036;-61
2021/10/11 01:12:23;;;;;;;12.02;2.30;;;11.70;99.90;;;;;;5095554;28;20505;-62
2021/10/11 01:14:49;;;;;;;9.05;2.13;;;11.70;99.90;;;;;;5095361;28;20367;-62
2021/10/11 01:17:15;;;;;;;8.35;2.50;;;11.70;99.90;;;;;;5095158;28;20482;-61
2021/10/11 01:19:45;;;;;;;14.38;2.38;;;11.60;99.90;;;;;;5095356;28;20040;-61
2021/10/11 01:22:11;;;;;;;11.25;2.00;;;11.70;99.90;;;;;;5095090;28;20046;-62
2021/10/11 01:24:37;;;;;;;9.07;2.35;;;11.60;99.90;;;;;;5094809;28;20040;-61
2021/10/11 01:27:03;;;;;;;11.18;2.38;;;11.60;99.90;;;;;;5094913;28;20040;-62
2021/10/11 01:29:28;;;;;;;10.57;2.38;;;11.60;99.90;;;;;;5094790;28;20417;-61
2021/10/11 01:31:54;;;;;;;9.07;1.95;;;11.60;99.90;;;;;;5094605;28;20040;-61
2021/10/11 01:34:19;;;;;;;11.05;1.88;;;11.60;99.90;;;;;;5094764;28;20128;-61
2021/10/11 01:36:45;;;;;;;10.23;2.17;;;11.60;99.90;;;;;;5094667;28;20036;-61
2021/10/11 01:39:11;;;;;;;11.25;1.95;;;11.50;99.90;;;;;;5094547;28;20114;-61
2021/10/11 01:41:37;;;;;;;11.15;2.58;;;11.50;99.90;;;;;;5094625;28;20363;-62
2021/10/11 01:44:04;;;;;;;11.98;1.80;;;11.50;99.90;;;;;;5094485;28;20528;-62
2021/10/11 01:46:30;;;;;;;11.88;2.30;;;11.40;99.90;;;;;;5093979;28;20386;-62
2021/10/11 01:48:56;;;;;;;14.05;2.60;;;11.40;99.90;;;;;;5094311;28;20051;-62
2021/10/11 01:51:22;;;;;;;12.25;2.92;;;11.40;99.90;;;;;;5094444;28;20225;-61
2021/10/11 01:53:49;;;;;;;11.35;1.65;;;11.30;99.90;;;;;;5094166;28;20115;-62
2021/10/11 01:56:14;;;;;;;10.30;2.55;;;11.20;99.90;;;;;;5094499;28;20032;-61
2021/10/11 01:58:40;;;;;;;10.18;2.33;;;11.10;99.90;;;;;;5094427;28;20086;-61
2021/10/11 02:01:06;;;;;;;9.70;1.88;;;11.10;99.90;;;;;;5094228;28;20485;-62
2021/10/11 02:03:32;;;;;;;8.10;2.80;;;11.10;99.90;;;;;;5094382;28;20040;-61
2021/10/11 02:05:57;;;;;;;11.50;1.83;;;11.00;99.90;;;;;;5094371;28;20578;-61
2021/10/11 02:08:23;;;;;;;11.45;2.10;;;11.00;99.90;;;;;;5093957;28;20553;-61
2021/10/11 02:10:49;;;;;;;11.32;1.95;;;11.00;99.90;;;;;;5094153;28;20032;-62
2021/10/11 02:13:14;;;;;;;7.97;2.40;;;11.00;99.90;;;;;;5094148;28;20032;-62
2021/10/11 02:15:40;;;;;;;7.65;1.90;;;11.00;99.90;;;;;;5093895;28;20044;-62
2021/10/11 02:18:06;;;;;;;13.02;3.55;;;10.90;99.90;;;;;;5093845;28;20085;-61
2021/10/11 02:20:31;;;;;;;8.63;2.10;;;10.80;99.90;;;;;;5093732;28;20089;-62
2021/10/11 02:22:57;;;;;;;10.35;2.67;;;10.80;99.90;;;;;;5094111;28;20071;-62
2021/10/11 02:25:23;;;;;;;11.18;2.00;;;10.80;99.90;;;;;;5093571;28;20048;-61
2021/10/11 02:27:49;;;;;;;14.05;1.88;;;10.80;99.90;;;;;;5093573;28;20477;-61
2021/10/11 02:30:14;;;;;;;14.02;2.35;;;10.80;99.90;;;;;;5075801;28;20089;-61
2021/10/11 02:32:41;;;;;;;10.85;1.75;;;10.70;99.90;;;;;;5093722;28;20094;-62
2021/10/11 02:35:07;;;;;;;7.25;1.83;;;10.70;99.90;;;;;;5093519;28;20040;-62
2021/10/11 02:37:33;;;;;;;8.63;2.35;;;10.60;99.90;;;;;;5093631;28;20079;-62
2021/10/11 02:39:59;;;;;;;9.57;2.00;;;10.60;99.90;;;;;;5093750;28;20075;-61
2021/10/11 02:42:25;;;;;;;12.32;2.70;;;10.60;99.90;;;;;;5093380;28;20076;-61
2021/10/11 02:44:51;;;;;;;12.70;1.80;;;10.60;99.90;;;;;;5093822;28;20046;-61
2021/10/11 02:47:17;;;;;;;12.27;1.80;;;10.60;99.90;;;;;;5093471;28;20123;-61
2021/10/11 02:49:43;;;;;;;12.88;2.38;;;10.50;99.90;;;;;;5093615;28;20138;-61
2021/10/11 02:52:08;;;;;;;9.90;1.83;;;10.50;99.90;;;;;;5093110;28;20032;-62
2021/10/11 02:54:34;;;;;;;13.75;2.38;;;10.50;99.90;;;;;;5093188;28;20040;-61
2021/10/11 02:57:00;;;;;;;7.97;2.03;;;10.50;99.90;;;;;;5092350;28;20046;-61
2021/10/11 02:59:26;;;;;;;11.85;2.58;;;10.50;99.90;;;;;;5093045;28;20119;-61
2021/10/11 03:01:51;;;;;;;12.43;1.63;;;10.50;99.90;;;;;;5093035;28;20043;-61
2021/10/11 03:04:17;;;;;;;11.80;1.92;;;10.50;99.90;;;;;;5092970;28;20089;-62
2021/10/11 03:06:43;;;;;;;14.88;2.53;;;10.40;99.90;;;;;;5093005;28;20039;-61
2021/10/11 03:09:08;;;;;;;10.32;1.73;;;10.40;99.90;;;;;;5093116;28;20398;-61
2021/10/11 03:11:34;;;;;;;7.22;1.77;;;10.40;99.90;;;;;;5092813;28;20477;-61
2021/10/11 03:14:00;;;;;;;11.18;2.35;;;10.40;99.90;;;;;;5092911;28;20039;-61
2021/10/11 03:16:26;;;;;;;11.82;2.28;;;10.40;99.90;;;;;;5092830;28;20081;-62
2021/10/11 03:18:52;;;;;;;11.40;2.28;;;10.40;99.90;;;;;;5092589;28;20039;-61
2021/10/11 03:21:18;;;;;;;11.98;3.20;;;10.40;99.90;;;;;;5092567;28;20081;-61
2021/10/11 03:23:50;;;;;;;11.45;1.88;;;10.40;99.90;;;;;;5092856;28;20117;-61
2021/10/11 03:26:17;;;;;;;10.65;1.98;;;10.50;99.90;;;;;;5092503;28;20055;-60
2021/10/11 03:28:44;;;;;;;10.45;2.00;;;10.50;99.90;;;;;;5092484;28;20036;-61
2021/10/11 03:31:10;;;;;;;10.20;2.60;;;10.50;99.90;;;;;;5092491;28;20036;-61
2021/10/11 03:33:35;;;;;;;8.45;2.40;;;10.50;99.90;;;;;;5092355;28;20110;-61
2021/10/11 03:36:01;;;;;;;7.93;1.92;;;10.50;99.90;;;;;;5092380;28;20036;-61
2021/10/11 03:38:27;;;;;;;11.45;1.52;;;10.50;99.90;;;;;;5092430;28;20044;-62
2021/10/11 03:40:53;;;;;;;9.73;2.40;;;10.50;99.90;;;;;;5092492;28;20043;-61
2021/10/11 03:43:18;;;;;;;9.75;1.85;;;10.50;99.90;;;;;;5092256;28;20047;-61
2021/10/11 03:45:44;;;;;;;9.18;1.80;;;10.50;99.90;;;;;;5092335;28;20070;-61
2021/10/11 03:48:10;;;;;;;8.20;1.77;;;10.50;99.90;;;;;;5092329;28;20799;-61
2021/10/11 03:50:35;;;;;;;9.38;1.73;;;10.50;99.90;;;;;;5092588;28;20036;-61
2021/10/11 03:53:01;;;;;;;12.63;1.70;;;10.50;99.90;;;;;;5092361;28;20107;-61
2021/10/11 03:55:26;;;;;;;6.22;2.13;;;10.50;99.90;;;;;;5092245;28;20040;-62
2021/10/11 03:57:52;;;;;;;10.88;2.25;;;10.50;99.90;;;;;;5092147;28;20071;-61
2021/10/11 04:00:18;;;;;;;10.65;2.03;;;10.40;99.90;;;;;;5092053;28;20044;-61
2021/10/11 04:02:43;;;;;;;8.65;2.38;;;10.40;99.90;;;;;;5091931;28;20501;-61
2021/10/11 04:05:10;;;;;;;7.82;2.17;;;10.50;99.90;;;;;;5074148;28;20043;-61
2021/10/11 04:07:37;;;;;;;14.23;2.17;;;10.60;99.90;;;;;;5092093;28;20040;-61
2021/10/11 04:10:06;;;;;;;10.50;1.95;;;10.50;99.90;;;;;;5091649;28;20493;-62
2021/10/11 04:12:35;;;;;;;13.45;2.65;;;10.50;99.90;;;;;;5091987;28;20036;-60
2021/10/11 04:15:02;;;;;;;17.95;2.47;;;10.50;99.90;;;;;;5091753;28;20569;-61
2021/10/11 04:17:28;;;;;;;7.57;1.40;;;10.50;99.90;;;;;;5091761;28;20051;-61
2021/10/11 04:19:54;;;;;;;17.48;2.47;;;10.50;99.90;;;;;;5091739;28;20047;-60
2021/10/11 04:22:20;;;;;;;11.25;2.22;;;10.40;99.90;;;;;;5091738;28;20553;-61
2021/10/11 04:24:46;;;;;;;9.63;1.80;;;10.40;99.90;;;;;;5091667;28;20131;-61
2021/10/11 04:27:12;;;;;;;8.68;2.00;;;10.40;99.90;;;;;;5091678;28;20051;-61
2021/10/11 04:29:38;;;;;;;8.23;1.67;;;10.40;99.90;;;;;;5091691;28;20456;-61
2021/10/11 04:32:05;;;;;;;8.35;2.13;;;10.30;99.90;;;;;;5091463;28;20032;-61
2021/10/11 04:34:31;;;;;;;5.93;1.88;;;10.30;99.90;;;;;;5091841;28;20040;-61
2021/10/11 04:36:56;;;;;;;10.35;2.63;;;10.30;99.90;;;;;;5091721;28;20444;-62
2021/10/11 04:39:22;;;;;;;9.65;1.80;;;10.30;99.90;;;;;;5091764;28;20036;-61
2021/10/11 04:41:48;;;;;;;11.15;2.13;;;10.20;99.90;;;;;;5091509;28;20482;-61
2021/10/11 04:44:13;;;;;;;9.93;3.13;;;10.20;99.90;;;;;;5091512;28;20127;-61
2021/10/11 04:46:39;;;;;;;9.32;2.40;;;10.30;99.90;;;;;;5091435;28;20044;-61
2021/10/11 04:49:05;;;;;;;15.15;3.00;;;10.30;99.90;;;;;;5091844;28;20044;-61
2021/10/11 04:51:30;;;;;;;16.73;2.40;;;10.30;99.90;;;;;;5091874;28;20422;-61
2021/10/11 04:53:56;;;;;;;10.80;2.67;;;10.30;99.90;;;;;;5091537;28;20537;-61
2021/10/11 04:56:22;;;;;;;9.95;1.92;;;10.30;99.90;;;;;;5091534;28;20036;-61
2021/10/11 04:58:47;;;;;;;9.77;1.90;;;10.30;99.90;;;;;;5091380;28;20036;-61
2021/10/11 05:01:13;;;;;;;10.80;2.13;;;10.30;99.90;;;;;;5091379;28;20040;-61
2021/10/11 05:03:38;;;;;;;10.20;2.92;;;10.30;99.90;;;;;;5073006;28;20086;-61
2021/10/11 05:06:04;;;;;;;21.92;2.58;;;10.30;99.90;;;;;;5091409;28;20047;-61
2021/10/11 05:08:30;;;;;;;11.88;2.40;;;10.30;99.90;;;;;;5091505;28;20537;-61
2021/10/11 05:10:56;;;;;;;7.03;1.73;;;10.30;99.90;;;;;;5091291;28;20040;-61
2021/10/11 05:13:22;;;;;;;12.65;2.40;;;10.30;99.90;;;;;;5091226;28;20032;-62
2021/10/11 05:15:48;;;;;;;8.02;1.88;;;10.30;99.90;;;;;;5091203;28;20047;-61
2021/10/11 05:18:13;;;;;;;10.27;2.38;;;10.30;99.90;;;;;;5091374;28;20055;-62
2021/10/11 05:20:45;;;;;;;11.05;1.80;;;10.30;99.90;;;;;;5092242;28;20039;-61
2021/10/11 05:23:11;;;;;;;8.73;2.13;;;10.30;99.90;;;;;;5095007;28;20097;-61
2021/10/11 05:25:36;;;;;;;9.13;1.95;;;10.30;99.90;;;;;;5094774;28;20056;-61
2021/10/11 05:28:02;;;;;;;9.00;1.92;;;10.30;99.90;;;;;;5094621;28;20551;-61
2021/10/11 05:30:28;;;;;;;11.52;2.08;;;10.30;99.90;;;;;;5094810;28;20131;-61
2021/10/11 05:32:53;;;;;;;11.75;2.58;;;10.40;99.90;;;;;;5094966;28;20044;-61
2021/10/11 05:35:19;;;;;;;11.27;2.90;;;10.30;99.90;;;;;;5094877;28;20032;-61
2021/10/11 05:37:45;;;;;;;10.88;2.67;;;10.40;99.90;;;;;;5094718;28;20040;-61
2021/10/11 05:40:11;;;;;;;15.50;2.38;;;10.40;99.90;;;;;;5094859;28;20040;-61
2021/10/11 05:42:36;;;;;;;13.05;2.03;;;10.40;99.90;;;;;;5094823;28;20062;-61
2021/10/11 05:45:03;;;;;;;9.30;2.10;;;10.40;99.90;;;;;;5094563;28;20599;-62
2021/10/11 05:47:28;;;;;;;11.82;2.55;;;10.40;99.90;;;;;;5094520;28;20082;-61
2021/10/11 05:49:54;;;;;;;9.68;1.98;;;10.40;99.90;;;;;;5094572;28;20473;-61
2021/10/11 05:52:21;;;;;;;12.50;2.28;;;10.30;99.90;;;;;;5094531;28;20536;-62
2021/10/11 05:54:46;;;;;;;14.65;2.25;;;10.30;99.90;;;;;;5094373;28;20047;-61
2021/10/11 05:57:12;;;;;;;12.75;2.53;;;10.30;99.90;;;;;;5094237;28;20040;-61
2021/10/11 05:59:38;;;;;;;10.07;2.00;;;10.30;99.90;;;;;;5094233;28;20143;-60
2021/10/11 06:02:04;;;;;;;13.00;2.30;;;10.30;99.90;;;;;;5094195;28;20036;-61
2021/10/11 06:04:29;;;;;;;6.05;2.13;;;10.20;99.90;;;;;;5094281;28;20032;-61
2021/10/11 06:06:55;;;;;;;10.13;2.17;;;10.20;99.90;;;;;;5094098;28;20043;-61
2021/10/11 06:09:21;;;;;;;12.70;2.63;;;10.20;99.90;;;;;;5094098;28;20079;-61
2021/10/11 06:11:46;;;;;;;11.30;3.35;;;10.20;99.90;;;;;;5094001;28;20082;-61
2021/10/11 06:14:12;;;;;;;6.80;1.65;;;10.20;99.90;;;;;;5075513;28;20048;-61
2021/10/11 06:16:38;;;;;;;11.85;2.72;;;10.20;99.90;;;;;;5094085;28;20032;-61
2021/10/11 06:19:03;;;;;;;11.13;2.90;;;10.20;99.90;;;;;;5094074;28;20044;-61
2021/10/11 06:21:29;;;;;;;8.88;2.00;;;10.20;99.90;;;;;;5094108;28;20451;-61
2021/10/11 06:23:55;;;;;;;12.82;3.13;;;10.20;99.90;;;;;;5094557;28;20074;-61
2021/10/11 06:26:21;;;;;;;11.43;2.22;;;10.20;99.90;;;;;;5093632;28;20100;-61
2021/10/11 06:28:47;;;;;;;11.23;1.88;;;10.20;99.90;;;;;;5093609;28;20043;-61
2021/10/11 06:31:12;;;;;;;15.25;3.00;;;10.20;99.90;;;;;;5093658;28;20032;-61
2021/10/11 06:33:38;;;;;;;8.77;2.08;;;10.20;99.90;;;;;;5093736;28;20039;-61
2021/10/11 06:36:04;;;;;;;12.77;2.20;;;10.20;99.90;;;;;;5093953;28;20043;-61
2021/10/11 06:38:30;;;;;;;9.52;2.90;;;10.20;99.90;;;;;;5093299;28;20032;-61
2021/10/11 06:40:55;;;;;;;13.27;2.40;;;10.30;99.90;;;;;;5093443;28;20036;-61
2021/10/11 06:43:21;;;;;;;11.93;2.08;;;10.20;99.90;;;;;;5093352;28;20486;-61
2021/10/11 06:45:47;;;;;;;15.10;2.55;;;10.30;99.90;;;;;;5093529;28;20042;-61
2021/10/11 06:48:16;;;;;;;16.38;3.03;;;10.30;99.90;;;;;;5093402;28;20055;-61
2021/10/11 06:50:42;;;;;;;12.98;2.50;;;10.30;99.90;;;;;;5093292;28;20044;-60
2021/10/11 06:53:07;;;;;;;10.50;2.08;;;10.40;99.90;;;;;;5093180;28;20127;-62
2021/10/11 06:55:33;;;;;;;10.85;2.38;;;10.40;99.90;;;;;;5093212;28;20071;-61
2021/10/11 06:57:58;;;;;;;10.30;2.63;;;10.50;99.90;;;;;;5093109;28;20520;-61
2021/10/11 07:00:24;;;;;;;14.38;3.42;;;10.40;99.90;;;;;;5093263;28;20476;-62
2021/10/11 07:02:50;;;;;;;9.25;2.28;;;10.50;99.90;;;;;;5092977;28;20094;-60
2021/10/11 07:05:16;;;;;;;15.20;3.10;;;10.50;99.90;;;;;;5093077;28;20111;-60
2021/10/11 07:07:42;;;;;;;10.43;2.47;;;10.60;99.90;;;;;;5074805;28;20080;-60
2021/10/11 07:10:09;;;;;;;10.98;1.98;;;10.70;99.90;;;;;;5092977;28;20078;-61
2021/10/11 07:12:35;;;;;;;10.45;2.45;;;10.70;99.90;;;;;;5093189;28;20044;-60
2021/10/11 07:15:02;;;;;;;15.05;3.38;;;10.90;99.90;;;;;;5093307;28;20480;-60
2021/10/11 07:17:27;;;;;;;11.55;3.38;;;10.90;99.90;;;;;;5093149;28;20039;-61
2021/10/11 07:19:53;;;;;;;12.10;2.28;;;11.00;99.90;;;;;;5092820;28;20036;-60
2021/10/11 07:22:19;;;;;;;9.50;1.52;;;11.10;99.90;;;;;;5092948;28;20032;-61
2021/10/11 07:24:47;;;;;;;11.45;2.40;;;11.20;99.90;;;;;;5092444;28;20139;-61
2021/10/11 07:27:13;;;;;;;8.68;2.05;;;11.30;99.90;;;;;;5092483;28;20058;-61
2021/10/11 07:29:39;;;;;;;12.50;2.00;;;11.30;99.90;;;;;;5092628;28;20040;-61
2021/10/11 07:32:06;;;;;;;7.00;1.58;;;11.40;99.90;;;;;;5092645;28;20078;-61
2021/10/11 07:34:33;;;;;;;8.43;1.73;;;11.50;99.90;;;;;;5092538;28;20047;-61
2021/10/11 07:36:59;;;;;;;13.30;1.75;;;11.60;99.90;;;;;;5092361;28;20036;-61
2021/10/11 07:39:25;;;;;;;13.40;2.88;;;11.60;99.90;;;;;;5092302;28;20036;-62
2021/10/11 07:41:51;;;;;;;7.07;1.35;;;11.60;99.90;;;;;;5092540;28;20036;-61
2021/10/11 07:44:17;;;;;;;10.05;1.90;;;11.60;99.90;;;;;;5092004;28;20538;-61
2021/10/11 07:46:43;;;;;;;10.15;2.17;;;11.70;99.90;;;;;;5092480;28;20058;-61
2021/10/11 07:49:09;;;;;;;7.65;1.92;;;11.70;99.90;;;;;;5074062;28;20467;-61
2021/10/11 07:51:38;;;;;;;9.32;2.17;;;11.70;99.90;;;;;;5092225;28;20119;-61
2021/10/11 07:54:04;;;;;;;7.93;1.90;;;11.70;99.90;;;;;;5092155;28;20040;-62
2021/10/11 07:56:29;;;;;;;8.93;1.17;;;11.80;99.90;;;;;;5092136;28;20484;-61
2021/10/11 07:58:55;;;;;;;11.38;1.92;;;11.80;99.90;;;;;;5092229;28;20039;-61
2021/10/11 08:01:21;;;;;;;6.20;1.35;;;11.80;99.90;;;;;;5092014;28;20367;-61
2021/10/11 08:03:46;;;;;;;6.78;1.55;;;11.80;99.90;;;;;;5092075;28;20040;-61
2021/10/11 08:06:12;;;;;;;6.80;0.95;;;11.90;99.90;;;;;;5092026;28;20075;-61
2021/10/11 08:08:37;;;;;;;11.95;2.15;;;11.90;99.90;;;;;;5092227;28;20105;-61
2021/10/11 08:11:03;;;;;;;11.38;2.13;;;12.00;99.90;;;;;;5092061;28;20116;-61
2021/10/11 08:13:29;;;;;;;10.70;1.95;;;12.00;99.90;;;;;;5074215;28;20127;-61
2021/10/11 08:15:56;;;;;;;14.20;2.28;;;12.10;99.90;;;;;;5092271;28;20652;-61
2021/10/11 08:18:23;;;;;;;12.52;2.85;;;12.10;99.90;;;;;;5073984;28;20497;-61
2021/10/11 08:20:49;;;;;;;12.95;1.90;;;12.30;99.90;;;;;;5092040;28;20104;-61
2021/10/11 08:23:15;;;;;;;11.88;1.90;;;12.20;99.90;;;;;;5092246;28;20044;-61
2021/10/11 08:25:41;;;;;;;13.18;2.42;;;12.30;99.90;;;;;;5091672;28;20414;-61
2021/10/11 08:28:06;;;;;;;16.73;2.47;;;12.30;99.90;;;;;;5091815;28;20044;-61
2021/10/11 08:30:33;;;;;;;9.13;1.65;;;12.40;99.90;;;;;;5091831;28;20447;-61
2021/10/11 08:32:59;;;;;;;13.23;2.95;;;12.50;99.90;;;;;;5091724;28;20394;-61
2021/10/11 08:35:25;;;;;;;8.90;2.22;;;12.60;99.90;;;;;;5091559;28;20490;-61
2021/10/11 08:37:51;;;;;;;16.10;1.90;;;12.70;99.90;;;;;;5091634;28;20040;-61
2021/10/11 08:40:18;;;;;;;10.23;2.17;;;12.90;99.90;;;;;;5091835;28;20561;-61
2021/10/11 08:42:44;;;;;;;7.70;1.70;;;13.00;99.90;;;;;;5091774;28;20040;-61
2021/10/11 08:45:10;;;;;;;9.98;3.15;;;13.10;99.90;;;;;;5091539;28;20040;-61
2021/10/11 08:47:36;;;;;;;11.02;2.00;;;13.20;99.90;;;;;;5091537;28;20482;-61
2021/10/11 08:50:01;;;;;;;14.43;2.47;;;13.20;99.90;;;;;;5091490;28;20047;-61
2021/10/11 08:52:27;;;;;;;12.68;2.42;;;13.30;99.90;;;;;;5091428;28;20028;-61
2021/10/11 08:54:53;;;;;;;19.75;3.33;;;13.30;99.90;;;;;;5091656;28;20074;-62
2021/10/11 08:57:28;;;;;;;13.00;2.05;;;13.30;99.90;;;;;;5095225;28;20048;-61
2021/10/11 09:00:05;;;;;;;10.98;2.05;;;13.20;99.90;;;;;;5077337;28;20546;-62
2021/10/11 09:02:31;;;;;;;12.07;2.67;;;13.20;99.90;;;;;;5095438;28;20044;-61
2021/10/11 09:04:57;;;;;;;11.00;2.03;;;13.20;99.90;;;;;;5095341;28;20043;-61
2021/10/11 09:07:24;;;;;;;8.00;2.20;;;13.20;99.90;;;;;;5095534;28;20084;-61
2021/10/11 09:09:52;;;;;;;9.48;2.55;;;13.30;99.90;;;;;;5095524;28;20036;-61
2021/10/11 09:12:23;;;;;;;18.08;2.17;;;13.40;99.90;;;;;;5095327;28;20044;-62
2021/10/11 09:15:02;;;;;;;9.90;2.85;;;13.40;99.90;;;;;;5095143;28;20507;-62
2021/10/11 09:17:31;;;;;;;;;;;13.40;99.90;;;;;;5095518;28;20128;-61
2021/10/11 09:20:21;;;;;;;8.35;2.03;;;13.50;99.90;;;;;;5095336;28;19916;-62
2021/10/11 09:22:50;;;;;;;6.93;1.92;;;13.60;99.90;;;;;;5095522;28;20612;-61
2021/10/11 09:25:17;;;;;;;13.90;3.03;;;13.60;99.90;;;;;;5094710;28;20608;-61
2021/10/11 09:27:51;;;;;;;12.02;2.40;;;13.60;99.90;;;;;;5094762;28;20084;-61
2021/10/11 09:30:29;;;;;;;8.25;1.55;;;13.80;99.90;;;;;;5094803;28;20040;-61
2021/10/11 09:33:17;;;;;;;12.73;2.13;;;13.90;99.90;;;;;;5095184;28;20052;-61
2021/10/11 09:35:44;;;;;;;13.05;2.15;;;13.90;99.90;;;;;;5095138;28;20046;-61
2021/10/11 09:38:20;;;;;;;9.43;2.05;;;14.10;99.90;;;;;;5094937;28;20159;-61
2021/10/11 09:40:47;;;;;;;10.18;1.42;;;14.10;99.90;;;;;;5094813;28;20044;-60
2021/10/11 09:43:15;;;;;;;9.60;1.55;;;14.20;99.90;;;;;;5094729;28;20040;-61
2021/10/11 09:45:41;;;;;;;10.40;1.77;;;14.30;99.90;;;;;;5094649;28;20048;-61
2021/10/11 09:48:08;;;;;;;9.38;1.85;;;14.40;99.90;;;;;;5094488;28;20396;-60
2021/10/11 09:50:34;;;;;;;14.07;1.90;;;14.50;99.90;;;;;;5094408;28;20036;-61
2021/10/11 09:53:02;;;;;;;10.32;1.88;;;14.60;99.90;;;;;;5094625;28;20032;-61
2021/10/11 09:55:28;;;;;;;14.25;3.00;;;14.70;99.90;;;;;;5076144;28;20061;-61
2021/10/11 09:57:55;;;;;;;11.98;2.28;;;14.80;99.90;;;;;;5076592;28;20051;-61
2021/10/11 10:00:21;;;;;;;11.38;2.40;;;14.80;99.90;;;;;;5094384;28;20128;-61
2021/10/11 10:02:47;;;;;;;7.20;1.30;;;14.80;99.90;;;;;;5094342;28;20090;-61
2021/10/11 10:05:27;;;;;;;11.02;2.03;;;14.80;99.90;;;;;;5094026;28;20119;-60
2021/10/11 10:07:55;;;;;;;15.05;3.30;;;14.70;99.90;;;;;;5093673;28;20044;-61
2021/10/11 10:10:23;;;;;;;14.57;2.65;;;14.80;99.90;;;;;;5094516;28;20036;-61
2021/10/11 10:12:50;;;;;;;10.50;1.55;;;14.80;99.90;;;;;;5094476;28;20397;-61
2021/10/11 10:15:28;;;;;;;9.38;1.50;;;14.90;99.90;;;;;;5094364;28;20040;-60
2021/10/11 10:18:05;;;;;;;9.82;1.23;;;15.00;99.90;;;;;;5093739;28;20119;-60
2021/10/11 10:20:33;;;;;;;8.57;1.42;;;15.10;99.90;;;;;;5094403;28;20504;-61
2021/10/11 10:22:59;;;;;;;8.40;2.03;;;15.10;99.90;;;;;;5094203;28;20051;-61
2021/10/11 10:25:26;;;;;;;7.80;1.70;;;15.00;99.90;;;;;;5094045;28;20480;-60
2021/10/11 10:27:54;;;;;;;14.50;1.67;;;14.80;99.90;;;;;;5093991;28;20048;-61
2021/10/11 10:30:21;;;;;;;8.95;1.60;;;14.60;99.90;;;;;;5093760;28;20063;-61
2021/10/11 10:33:02;;;;;;;7.85;1.30;;;14.50;99.90;;;;;;5093954;28;20040;-60
2021/10/11 10:35:36;;;;;;;8.70;2.05;;;14.50;99.90;;;;;;5093718;28;20107;-62
2021/10/11 10:38:02;;;;;;;8.02;2.17;;;14.60;99.90;;;;;;5093675;28;20119;-62
2021/10/11 10:40:31;;;;;;;5.75;1.45;;;14.60;99.90;;;;;;5093779;28;20565;-61
2021/10/11 10:43:07;;;;;;;7.28;1.10;;;14.60;99.90;;;;;;5093388;28;20051;-61
2021/10/11 10:45:34;;;;;;;9.52;1.80;;;14.60;99.90;;;;;;5093554;28;20039;-62
2021/10/11 10:48:00;;;;;;;8.70;1.80;;;14.50;99.90;;;;;;5093388;28;20036;-61
2021/10/11 10:50:29;;;;;;;8.93;2.15;;;14.60;99.90;;;;;;5093231;28;20090;-61
2021/10/11 10:52:56;;;;;;;;;;;14.50;99.90;;;;;;5093736;28;20422;-61
2021/10/11 10:55:22;;;;;;;6.40;1.58;;;14.50;99.90;;;;;;5093146;28;19916;-61
2021/10/11 10:57:52;;;;;;;10.57;1.35;;;14.50;99.90;;;;;;5093338;28;20043;-61
2021/10/11 11:00:18;;;;;;;7.57;1.25;;;14.50;99.90;;;;;;5093178;28;20044;-61
2021/10/11 11:02:53;;;;;;;9.80;1.73;;;14.60;99.90;;;;;;5093037;28;20043;-62
2021/10/11 11:05:20;;;;;;;6.43;1.10;;;14.50;99.90;;;;;;5093350;28;20569;-62
2021/10/11 11:07:50;;;;;;;7.32;1.70;;;14.40;99.90;;;;;;5093106;28;20211;-61
2021/10/11 11:10:24;;;;;;;10.98;1.42;;;14.40;99.90;;;;;;5092954;28;20097;-60
2021/10/11 11:13:14;;;;;;;7.18;1.38;;;14.40;99.90;;;;;;5093011;28;20043;-61
2021/10/11 11:15:51;;;;;;;9.50;2.00;;;14.40;99.90;;;;;;5092896;28;20093;-62
2021/10/11 11:18:22;;;;;;;10.25;1.60;;;14.40;99.90;;;;;;5092005;28;20453;-61
2021/10/11 11:20:50;;;;;;;8.68;1.63;;;14.50;99.90;;;;;;5092900;28;20036;-61
2021/10/11 11:23:23;;;;;;;13.02;1.92;;;14.60;99.90;;;;;;5092916;28;20040;-61
2021/10/11 11:25:51;;;;;;;12.52;1.65;;;14.60;99.90;;;;;;5092546;28;20052;-60
2021/10/11 11:28:22;;;;;;;5.97;1.83;;;14.80;99.90;;;;;;5092611;28;20044;-61
2021/10/11 11:30:52;;;;;;;9.32;1.27;;;14.80;99.90;;;;;;5092439;28;20036;-62
2021/10/11 11:33:19;;;;;;;6.35;1.50;;;14.60;99.90;;;;;;5092967;28;20131;-61
2021/10/11 11:35:53;;;;;;;6.53;1.67;;;14.40;99.90;;;;;;5092761;28;20048;-61
2021/10/11 11:38:25;;;;;;;3.72;0.90;;;14.20;99.90;;;;;;5092427;28;20043;-61
2021/10/11 11:40:59;;;;;;;4.93;0.90;;;14.10;99.90;;;;;;5092328;28;20127;-61
2021/10/11 11:43:27;;;;;;;4.35;0.70;;;14.00;99.90;;;;;;5092258;28;20036;-60
2021/10/11 11:45:55;;;;;;;5.03;1.15;;;14.00;99.90;;;;;;5092575;28;20393;-61
2021/10/11 11:48:26;;;;;;;5.03;1.20;;;14.00;99.90;;;;;;5092355;28;20047;-61
2021/10/11 11:51:04;;;;;;;4.22;1.55;;;14.00;99.90;;;;;;5092346;28;20405;-61
2021/10/11 11:53:32;;;;;;;4.55;0.98;;;14.00;99.90;;;;;;5092187;28;20032;-61
2021/10/11 11:55:59;;;;;;;10.32;1.45;;;14.10;99.90;;;;;;5092123;28;20470;-61
2021/10/11 11:58:29;;;;;;;10.05;1.27;;;14.10;99.90;;;;;;5092028;28;20542;-61
2021/10/11 12:00:57;;;;;;;12.15;1.70;;;14.20;99.90;;;;;;5074014;28;20120;-60
2021/10/11 12:03:25;;;;;;;13.23;1.40;;;14.20;99.90;;;;;;5073872;28;20399;-61
2021/10/11 12:05:53;;;;;;;7.95;2.00;;;14.30;99.90;;;;;;5092005;28;20072;-61
2021/10/11 12:08:20;;;;;;;10.35;1.48;;;14.40;99.90;;;;;;5092127;28;20381;-62
2021/10/11 12:11:04;;;;;;;7.75;1.00;;;14.50;99.90;;;;;;5092404;28;20194;-62
2021/10/11 12:13:33;;;;;;;9.20;1.80;;;14.70;99.90;;;;;;5091956;28;20036;-61
2021/10/11 12:16:10;;;;;;;7.72;1.17;;;14.70;99.90;;;;;;5092240;28;20415;-61
2021/10/11 12:18:46;;;;;;;9.25;1.90;;;14.60;99.90;;;;;;5091839;28;20040;-61
2021/10/11 12:21:36;;;;;;;7.40;1.48;;;14.50;99.90;;;;;;5092035;28;20386;-61
2021/10/11 12:24:18;;;;;;;4.18;1.25;;;14.50;99.90;;;;;;5091960;28;20067;-61
2021/10/11 12:26:56;;;;;;;8.13;1.48;;;14.40;99.90;;;;;;5091570;28;20108;-62
2021/10/11 12:29:23;;;;;;;9.77;1.63;;;14.40;99.90;;;;;;5093023;28;20076;-61
2021/10/11 12:32:00;;;;;;;9.38;1.52;;;14.40;99.90;;;;;;5098402;28;20035;-61
2021/10/11 12:34:32;;;;;;;7.68;1.38;;;14.40;99.90;;;;;;5098368;28;20040;-61
2021/10/11 12:36:58;;;;;;;9.68;1.80;;;14.40;99.90;;;;;;5098364;28;20040;-61
2021/10/11 12:39:33;;;;;;;7.30;1.17;;;14.40;99.90;;;;;;5080080;28;20047;-61
2021/10/11 12:42:00;;;;;;;5.88;1.40;;;14.40;99.90;;;;;;5098492;28;20042;-61